sensor_id;sensor_type;location;lat;lon;timestamp;P1;durP1;ratioP1;P2;durP2;ratioP2
5690;SDS011;2870;42.680;23.364;2023-04-03T00:01:25;20.90;;;12.43;;
5690;SDS011;2870;42.680;23.364;2023-04-03T00:03:52;21.10;;;11.40;;
5690;SDS011;2870;42.680;23.364;2023-04-03T00:06:20;15.80;;;10.27;;
5690;SDS011;2870;42.680;23.364;2023-04-03T00:08:47;19.83;;;10.70;;
5690;SDS011;2870;42.680;23.364;2023-04-03T00:11:14;17.37;;;9.67;;
5690;SDS011;2870;42.680;23.364;2023-04-03T00:13:41;15.03;;;10.07;;
5690;SDS011;2870;42.680;23.364;2023-04-03T00:16:08;20.00;;;11.37;;
5690;SDS011;2870;42.680;23.364;2023-04-03T00:18:36;28.13;;;10.50;;
5690;SDS011;2870;42.680;23.364;2023-04-03T00:21:05;14.40;;;9.90;;
5690;SDS011;2870;42.680;23.364;2023-04-03T00:23:33;15.73;;;10.00;;
5690;SDS011;2870;42.680;23.364;2023-04-03T00:26:00;16.10;;;9.77;;
5690;SDS011;2870;42.680;23.364;2023-04-03T00:28:27;13.87;;;8.80;;
5690;SDS011;2870;42.680;23.364;2023-04-03T00:30:54;11.80;;;7.83;;
5690;SDS011;2870;42.680;23.364;2023-04-03T00:33:21;12.83;;;8.13;;
5690;SDS011;2870;42.680;23.364;2023-04-03T00:35:49;13.03;;;7.90;;
5690;SDS011;2870;42.680;23.364;2023-04-03T00:38:17;15.53;;;8.60;;
5690;SDS011;2870;42.680;23.364;2023-04-03T00:40:46;12.40;;;8.60;;
5690;SDS011;2870;42.680;23.364;2023-04-03T00:43:15;13.63;;;8.70;;
5690;SDS011;2870;42.680;23.364;2023-04-03T00:45:44;14.33;;;8.03;;
5690;SDS011;2870;42.680;23.364;2023-04-03T00:48:13;13.67;;;8.57;;
5690;SDS011;2870;42.680;23.364;2023-04-03T00:50:43;12.90;;;7.93;;
5690;SDS011;2870;42.680;23.364;2023-04-03T00:53:11;16.37;;;9.73;;
5690;SDS011;2870;42.680;23.364;2023-04-03T00:55:41;15.47;;;9.00;;
5690;SDS011;2870;42.680;23.364;2023-04-03T00:58:10;13.73;;;8.93;;
5690;SDS011;2870;42.680;23.364;2023-04-03T01:00:38;15.43;;;9.30;;
5690;SDS011;2870;42.680;23.364;2023-04-03T01:03:09;16.90;;;9.00;;
5690;SDS011;2870;42.680;23.364;2023-04-03T01:05:36;14.00;;;9.10;;
5690;SDS011;2870;42.680;23.364;2023-04-03T01:08:03;14.07;;;9.77;;
5690;SDS011;2870;42.680;23.364;2023-04-03T01:10:30;12.23;;;8.90;;
5690;SDS011;2870;42.680;23.364;2023-04-03T01:12:57;16.40;;;8.93;;
5690;SDS011;2870;42.680;23.364;2023-04-03T01:15:27;11.23;;;8.13;;
5690;SDS011;2870;42.680;23.364;2023-04-03T01:17:58;13.30;;;9.50;;
5690;SDS011;2870;42.680;23.364;2023-04-03T01:20:36;19.97;;;8.93;;
5690;SDS011;2870;42.680;23.364;2023-04-03T01:23:32;22.50;;;9.77;;
5690;SDS011;2870;42.680;23.364;2023-04-03T01:26:10;15.13;;;9.13;;
5690;SDS011;2870;42.680;23.364;2023-04-03T01:28:37;19.73;;;10.17;;
5690;SDS011;2870;42.680;23.364;2023-04-03T01:31:08;15.87;;;10.07;;
5690;SDS011;2870;42.680;23.364;2023-04-03T01:33:43;13.73;;;8.90;;
5690;SDS011;2870;42.680;23.364;2023-04-03T01:36:10;15.30;;;11.20;;
5690;SDS011;2870;42.680;23.364;2023-04-03T01:38:40;20.40;;;11.43;;
5690;SDS011;2870;42.680;23.364;2023-04-03T01:41:07;17.07;;;11.30;;
5690;SDS011;2870;42.680;23.364;2023-04-03T01:43:34;18.50;;;10.90;;
5690;SDS011;2870;42.680;23.364;2023-04-03T01:46:01;22.90;;;12.90;;
5690;SDS011;2870;42.680;23.364;2023-04-03T01:48:28;20.43;;;11.03;;
5690;SDS011;2870;42.680;23.364;2023-04-03T01:50:56;24.00;;;12.77;;
5690;SDS011;2870;42.680;23.364;2023-04-03T01:53:22;22.50;;;11.63;;
5690;SDS011;2870;42.680;23.364;2023-04-03T01:55:49;14.50;;;11.00;;
5690;SDS011;2870;42.680;23.364;2023-04-03T01:58:16;23.50;;;12.80;;
5690;SDS011;2870;42.680;23.364;2023-04-03T02:03:33;31.73;;;17.37;;
5690;SDS011;2870;42.680;23.364;2023-04-03T02:06:02;32.80;;;18.43;;
5690;SDS011;2870;42.680;23.364;2023-04-03T02:08:29;32.53;;;21.10;;
5690;SDS011;2870;42.680;23.364;2023-04-03T02:10:56;33.23;;;17.27;;
5690;SDS011;2870;42.680;23.364;2023-04-03T02:13:23;28.40;;;18.30;;
5690;SDS011;2870;42.680;23.364;2023-04-03T02:15:49;39.23;;;18.73;;
5690;SDS011;2870;42.680;23.364;2023-04-03T02:18:16;43.13;;;18.63;;
5690;SDS011;2870;42.680;23.364;2023-04-03T02:20:43;29.17;;;15.70;;
5690;SDS011;2870;42.680;23.364;2023-04-03T02:23:12;30.03;;;17.10;;
5690;SDS011;2870;42.680;23.364;2023-04-03T02:25:39;31.73;;;16.70;;
5690;SDS011;2870;42.680;23.364;2023-04-03T02:28:05;26.07;;;15.70;;
5690;SDS011;2870;42.680;23.364;2023-04-03T02:30:32;27.00;;;14.93;;
5690;SDS011;2870;42.680;23.364;2023-04-03T02:32:59;25.47;;;12.70;;
5690;SDS011;2870;42.680;23.364;2023-04-03T02:35:26;23.27;;;14.40;;
5690;SDS011;2870;42.680;23.364;2023-04-03T02:37:53;26.70;;;15.27;;
5690;SDS011;2870;42.680;23.364;2023-04-03T02:40:22;24.97;;;13.00;;
5690;SDS011;2870;42.680;23.364;2023-04-03T02:42:48;16.43;;;12.17;;
5690;SDS011;2870;42.680;23.364;2023-04-03T02:45:15;19.43;;;12.60;;
5690;SDS011;2870;42.680;23.364;2023-04-03T02:47:42;19.70;;;13.07;;
5690;SDS011;2870;42.680;23.364;2023-04-03T02:50:09;23.60;;;12.67;;
5690;SDS011;2870;42.680;23.364;2023-04-03T02:52:36;20.67;;;11.73;;
5690;SDS011;2870;42.680;23.364;2023-04-03T02:55:04;19.40;;;12.40;;
5690;SDS011;2870;42.680;23.364;2023-04-03T02:57:32;29.87;;;13.10;;
5690;SDS011;2870;42.680;23.364;2023-04-03T03:00:00;21.50;;;13.07;;
5690;SDS011;2870;42.680;23.364;2023-04-03T03:02:27;18.30;;;11.80;;
5690;SDS011;2870;42.680;23.364;2023-04-03T03:04:54;20.57;;;11.73;;
5690;SDS011;2870;42.680;23.364;2023-04-03T03:07:20;27.40;;;12.40;;
5690;SDS011;2870;42.680;23.364;2023-04-03T03:09:47;21.20;;;11.37;;
5690;SDS011;2870;42.680;23.364;2023-04-03T03:12:14;20.17;;;11.50;;
5690;SDS011;2870;42.680;23.364;2023-04-03T03:14:42;19.27;;;11.57;;
5690;SDS011;2870;42.680;23.364;2023-04-03T03:17:09;16.67;;;10.70;;
5690;SDS011;2870;42.680;23.364;2023-04-03T03:19:36;16.70;;;12.30;;
5690;SDS011;2870;42.680;23.364;2023-04-03T03:22:03;18.53;;;10.83;;
5690;SDS011;2870;42.680;23.364;2023-04-03T03:24:30;18.60;;;12.00;;
5690;SDS011;2870;42.680;23.364;2023-04-03T03:26:57;21.77;;;11.30;;
5690;SDS011;2870;42.680;23.364;2023-04-03T03:29:23;16.83;;;11.90;;
5690;SDS011;2870;42.680;23.364;2023-04-03T03:31:52;18.10;;;11.73;;
5690;SDS011;2870;42.680;23.364;2023-04-03T03:34:19;18.17;;;11.43;;
5690;SDS011;2870;42.680;23.364;2023-04-03T03:36:45;15.93;;;10.20;;
5690;SDS011;2870;42.680;23.364;2023-04-03T03:39:12;15.87;;;9.27;;
5690;SDS011;2870;42.680;23.364;2023-04-03T03:41:39;13.07;;;9.33;;
5690;SDS011;2870;42.680;23.364;2023-04-03T03:44:06;18.50;;;9.80;;
5690;SDS011;2870;42.680;23.364;2023-04-03T03:46:33;23.43;;;10.33;;
5690;SDS011;2870;42.680;23.364;2023-04-03T03:49:01;21.33;;;10.77;;
5690;SDS011;2870;42.680;23.364;2023-04-03T03:51:28;17.50;;;11.27;;
5690;SDS011;2870;42.680;23.364;2023-04-03T03:53:54;27.83;;;12.33;;
5690;SDS011;2870;42.680;23.364;2023-04-03T03:56:21;21.87;;;12.10;;
5690;SDS011;2870;42.680;23.364;2023-04-03T03:58:48;26.90;;;13.13;;
5690;SDS011;2870;42.680;23.364;2023-04-03T04:01:15;21.93;;;13.17;;
5690;SDS011;2870;42.680;23.364;2023-04-03T04:03:43;22.60;;;12.97;;
5690;SDS011;2870;42.680;23.364;2023-04-03T04:06:11;23.93;;;13.00;;
5690;SDS011;2870;42.680;23.364;2023-04-03T04:08:38;17.40;;;12.00;;
5690;SDS011;2870;42.680;23.364;2023-04-03T04:11:05;19.40;;;12.80;;
5690;SDS011;2870;42.680;23.364;2023-04-03T04:13:32;20.97;;;12.20;;
5690;SDS011;2870;42.680;23.364;2023-04-03T04:15:59;29.63;;;11.20;;
5690;SDS011;2870;42.680;23.364;2023-04-03T04:18:26;22.20;;;11.33;;
5690;SDS011;2870;42.680;23.364;2023-04-03T04:20:53;21.53;;;11.47;;
5690;SDS011;2870;42.680;23.364;2023-04-03T04:23:21;24.03;;;10.43;;
5690;SDS011;2870;42.680;23.364;2023-04-03T04:25:48;20.90;;;11.80;;
5690;SDS011;2870;42.680;23.364;2023-04-03T04:28:15;21.03;;;12.60;;
5690;SDS011;2870;42.680;23.364;2023-04-03T04:30:43;30.77;;;12.67;;
5690;SDS011;2870;42.680;23.364;2023-04-03T04:33:11;21.50;;;11.57;;
5690;SDS011;2870;42.680;23.364;2023-04-03T04:35:39;20.00;;;10.70;;
5690;SDS011;2870;42.680;23.364;2023-04-03T04:38:07;31.47;;;13.20;;
5690;SDS011;2870;42.680;23.364;2023-04-03T04:40:36;23.57;;;12.13;;
5690;SDS011;2870;42.680;23.364;2023-04-03T04:43:03;20.63;;;12.57;;
5690;SDS011;2870;42.680;23.364;2023-04-03T04:45:30;38.10;;;14.00;;
5690;SDS011;2870;42.680;23.364;2023-04-03T04:47:56;22.23;;;13.80;;
5690;SDS011;2870;42.680;23.364;2023-04-03T04:50:23;43.37;;;14.10;;
5690;SDS011;2870;42.680;23.364;2023-04-03T04:52:50;23.27;;;13.17;;
5690;SDS011;2870;42.680;23.364;2023-04-03T04:55:17;26.63;;;14.43;;
5690;SDS011;2870;42.680;23.364;2023-04-03T04:57:45;22.33;;;13.60;;
5690;SDS011;2870;42.680;23.364;2023-04-03T05:00:13;30.93;;;13.13;;
5690;SDS011;2870;42.680;23.364;2023-04-03T05:02:40;25.50;;;14.27;;
5690;SDS011;2870;42.680;23.364;2023-04-03T05:05:08;30.70;;;16.37;;
5690;SDS011;2870;42.680;23.364;2023-04-03T05:07:34;46.07;;;17.60;;
5690;SDS011;2870;42.680;23.364;2023-04-03T05:10:01;28.93;;;15.97;;
5690;SDS011;2870;42.680;23.364;2023-04-03T05:12:29;29.50;;;15.57;;
5690;SDS011;2870;42.680;23.364;2023-04-03T05:14:57;26.40;;;15.23;;
5690;SDS011;2870;42.680;23.364;2023-04-03T05:17:24;19.50;;;11.87;;
5690;SDS011;2870;42.680;23.364;2023-04-03T05:19:51;19.57;;;8.97;;
5690;SDS011;2870;42.680;23.364;2023-04-03T05:22:18;32.13;;;9.80;;
5690;SDS011;2870;42.680;23.364;2023-04-03T05:24:45;24.50;;;9.43;;
5690;SDS011;2870;42.680;23.364;2023-04-03T05:27:12;17.40;;;10.93;;
5690;SDS011;2870;42.680;23.364;2023-04-03T05:29:38;21.63;;;10.33;;
5690;SDS011;2870;42.680;23.364;2023-04-03T05:32:10;14.57;;;9.27;;
5690;SDS011;2870;42.680;23.364;2023-04-03T05:34:36;33.23;;;10.47;;
5690;SDS011;2870;42.680;23.364;2023-04-03T05:37:03;36.67;;;10.57;;
5690;SDS011;2870;42.680;23.364;2023-04-03T05:39:30;24.57;;;10.70;;
5690;SDS011;2870;42.680;23.364;2023-04-03T05:41:57;20.83;;;11.03;;
5690;SDS011;2870;42.680;23.364;2023-04-03T05:44:24;33.03;;;13.17;;
5690;SDS011;2870;42.680;23.364;2023-04-03T05:46:50;27.30;;;15.40;;
5690;SDS011;2870;42.680;23.364;2023-04-03T05:49:19;34.70;;;18.83;;
5690;SDS011;2870;42.680;23.364;2023-04-03T05:51:45;31.73;;;15.97;;
5690;SDS011;2870;42.680;23.364;2023-04-03T05:54:14;30.33;;;13.77;;
5690;SDS011;2870;42.680;23.364;2023-04-03T05:56:43;38.70;;;14.43;;
5690;SDS011;2870;42.680;23.364;2023-04-03T05:59:10;31.03;;;15.70;;
5690;SDS011;2870;42.680;23.364;2023-04-03T06:01:37;33.97;;;14.83;;
5690;SDS011;2870;42.680;23.364;2023-04-03T06:04:04;26.33;;;13.23;;
5690;SDS011;2870;42.680;23.364;2023-04-03T06:06:48;18.40;;;11.80;;
5690;SDS011;2870;42.680;23.364;2023-04-03T06:09:16;18.97;;;13.73;;
5690;SDS011;2870;42.680;23.364;2023-04-03T06:11:44;24.33;;;14.27;;
5690;SDS011;2870;42.680;23.364;2023-04-03T06:14:11;24.27;;;14.83;;
5690;SDS011;2870;42.680;23.364;2023-04-03T06:16:38;29.47;;;15.63;;
5690;SDS011;2870;42.680;23.364;2023-04-03T06:19:05;28.47;;;16.07;;
5690;SDS011;2870;42.680;23.364;2023-04-03T06:21:33;36.27;;;16.37;;
5690;SDS011;2870;42.680;23.364;2023-04-03T06:24:02;35.20;;;16.60;;
5690;SDS011;2870;42.680;23.364;2023-04-03T06:26:29;65.67;;;17.97;;
5690;SDS011;2870;42.680;23.364;2023-04-03T06:28:56;24.87;;;18.10;;
5690;SDS011;2870;42.680;23.364;2023-04-03T06:31:22;46.33;;;18.90;;
5690;SDS011;2870;42.680;23.364;2023-04-03T06:33:49;35.80;;;20.20;;
5690;SDS011;2870;42.680;23.364;2023-04-03T06:36:18;32.43;;;20.87;;
5690;SDS011;2870;42.680;23.364;2023-04-03T06:38:46;34.30;;;21.50;;
5690;SDS011;2870;42.680;23.364;2023-04-03T06:41:15;39.20;;;19.83;;
5690;SDS011;2870;42.680;23.364;2023-04-03T06:43:42;36.33;;;18.03;;
5690;SDS011;2870;42.680;23.364;2023-04-03T06:46:12;33.30;;;16.93;;
5690;SDS011;2870;42.680;23.364;2023-04-03T06:48:40;33.03;;;17.67;;
5690;SDS011;2870;42.680;23.364;2023-04-03T06:51:07;38.80;;;18.97;;
5690;SDS011;2870;42.680;23.364;2023-04-03T06:53:37;34.07;;;19.13;;
5690;SDS011;2870;42.680;23.364;2023-04-03T06:56:04;38.80;;;19.07;;
5690;SDS011;2870;42.680;23.364;2023-04-03T06:58:33;36.50;;;17.40;;
5690;SDS011;2870;42.680;23.364;2023-04-03T07:01:00;41.77;;;18.83;;
5690;SDS011;2870;42.680;23.364;2023-04-03T07:03:26;29.83;;;17.03;;
5690;SDS011;2870;42.680;23.364;2023-04-03T07:05:53;32.00;;;18.90;;
5690;SDS011;2870;42.680;23.364;2023-04-03T07:08:20;36.90;;;18.53;;
5690;SDS011;2870;42.680;23.364;2023-04-03T07:10:48;37.47;;;18.87;;
5690;SDS011;2870;42.680;23.364;2023-04-03T07:13:15;45.23;;;18.60;;
5690;SDS011;2870;42.680;23.364;2023-04-03T07:15:43;27.50;;;17.80;;
5690;SDS011;2870;42.680;23.364;2023-04-03T07:18:10;41.43;;;18.30;;
5690;SDS011;2870;42.680;23.364;2023-04-03T07:20:37;41.83;;;17.87;;
5690;SDS011;2870;42.680;23.364;2023-04-03T07:23:05;30.67;;;18.47;;
5690;SDS011;2870;42.680;23.364;2023-04-03T07:25:32;31.23;;;17.73;;
5690;SDS011;2870;42.680;23.364;2023-04-03T07:27:58;38.37;;;15.87;;
5690;SDS011;2870;42.680;23.364;2023-04-03T07:30:25;27.67;;;15.90;;
5690;SDS011;2870;42.680;23.364;2023-04-03T07:32:53;24.90;;;15.97;;
5690;SDS011;2870;42.680;23.364;2023-04-03T07:35:20;33.20;;;16.37;;
5690;SDS011;2870;42.680;23.364;2023-04-03T07:37:47;42.33;;;21.50;;
5690;SDS011;2870;42.680;23.364;2023-04-03T07:40:14;47.00;;;26.37;;
5690;SDS011;2870;42.680;23.364;2023-04-03T07:42:40;43.57;;;26.50;;
5690;SDS011;2870;42.680;23.364;2023-04-03T07:45:07;38.77;;;23.07;;
5690;SDS011;2870;42.680;23.364;2023-04-03T07:47:35;46.77;;;23.03;;
5690;SDS011;2870;42.680;23.364;2023-04-03T07:50:03;36.03;;;21.10;;
5690;SDS011;2870;42.680;23.364;2023-04-03T07:52:31;32.30;;;20.73;;
5690;SDS011;2870;42.680;23.364;2023-04-03T07:54:58;33.03;;;19.43;;
5690;SDS011;2870;42.680;23.364;2023-04-03T07:57:25;37.03;;;18.87;;
5690;SDS011;2870;42.680;23.364;2023-04-03T07:59:52;32.13;;;19.07;;
5690;SDS011;2870;42.680;23.364;2023-04-03T08:02:19;32.20;;;19.47;;
5690;SDS011;2870;42.680;23.364;2023-04-03T08:04:46;37.60;;;20.20;;
5690;SDS011;2870;42.680;23.364;2023-04-03T08:07:14;35.60;;;18.80;;
5690;SDS011;2870;42.680;23.364;2023-04-03T08:09:41;35.33;;;18.60;;
5690;SDS011;2870;42.680;23.364;2023-04-03T08:12:08;27.63;;;18.20;;
5690;SDS011;2870;42.680;23.364;2023-04-03T08:14:36;36.30;;;19.30;;
5690;SDS011;2870;42.680;23.364;2023-04-03T08:17:03;33.37;;;19.37;;
5690;SDS011;2870;42.680;23.364;2023-04-03T08:19:30;32.83;;;18.97;;
5690;SDS011;2870;42.680;23.364;2023-04-03T08:21:57;38.67;;;20.87;;
5690;SDS011;2870;42.680;23.364;2023-04-03T08:24:27;34.23;;;19.63;;
5690;SDS011;2870;42.680;23.364;2023-04-03T08:26:54;44.87;;;22.13;;
5690;SDS011;2870;42.680;23.364;2023-04-03T08:29:21;29.90;;;17.77;;
5690;SDS011;2870;42.680;23.364;2023-04-03T08:31:47;37.63;;;19.23;;
5690;SDS011;2870;42.680;23.364;2023-04-03T08:34:15;37.17;;;16.87;;
5690;SDS011;2870;42.680;23.364;2023-04-03T08:36:42;36.73;;;19.50;;
5690;SDS011;2870;42.680;23.364;2023-04-03T08:39:09;29.10;;;17.70;;
5690;SDS011;2870;42.680;23.364;2023-04-03T08:41:38;28.93;;;18.40;;
5690;SDS011;2870;42.680;23.364;2023-04-03T08:44:11;30.50;;;18.93;;
5690;SDS011;2870;42.680;23.364;2023-04-03T08:46:47;38.23;;;18.40;;
5690;SDS011;2870;42.680;23.364;2023-04-03T08:49:23;27.93;;;18.87;;
5690;SDS011;2870;42.680;23.364;2023-04-03T08:51:52;34.70;;;20.03;;
5690;SDS011;2870;42.680;23.364;2023-04-03T08:54:23;33.80;;;18.50;;
5690;SDS011;2870;42.680;23.364;2023-04-03T08:56:55;35.83;;;18.83;;
5690;SDS011;2870;42.680;23.364;2023-04-03T08:59:26;34.20;;;17.80;;
5690;SDS011;2870;42.680;23.364;2023-04-03T09:01:56;33.93;;;18.73;;
5690;SDS011;2870;42.680;23.364;2023-04-03T09:04:27;29.20;;;18.70;;
5690;SDS011;2870;42.680;23.364;2023-04-03T09:06:56;35.37;;;17.83;;
5690;SDS011;2870;42.680;23.364;2023-04-03T09:09:30;29.53;;;18.27;;
5690;SDS011;2870;42.680;23.364;2023-04-03T09:12:03;26.00;;;17.67;;
5690;SDS011;2870;42.680;23.364;2023-04-03T09:14:41;35.67;;;18.07;;
5690;SDS011;2870;42.680;23.364;2023-04-03T09:17:14;29.50;;;17.03;;
5690;SDS011;2870;42.680;23.364;2023-04-03T09:19:49;29.83;;;15.50;;
5690;SDS011;2870;42.680;23.364;2023-04-03T09:22:21;21.40;;;15.00;;
5690;SDS011;2870;42.680;23.364;2023-04-03T09:24:52;25.33;;;15.70;;
5690;SDS011;2870;42.680;23.364;2023-04-03T09:27:26;31.90;;;16.87;;
5690;SDS011;2870;42.680;23.364;2023-04-03T09:29:55;38.63;;;16.00;;
5690;SDS011;2870;42.680;23.364;2023-04-03T09:32:25;30.40;;;18.13;;
5690;SDS011;2870;42.680;23.364;2023-04-03T09:34:54;29.63;;;17.40;;
5690;SDS011;2870;42.680;23.364;2023-04-03T09:37:33;37.67;;;18.10;;
5690;SDS011;2870;42.680;23.364;2023-04-03T09:40:02;24.93;;;16.30;;
5690;SDS011;2870;42.680;23.364;2023-04-03T09:42:32;27.87;;;17.67;;
5690;SDS011;2870;42.680;23.364;2023-04-03T09:44:59;30.63;;;21.67;;
5690;SDS011;2870;42.680;23.364;2023-04-03T09:47:27;39.67;;;24.50;;
5690;SDS011;2870;42.680;23.364;2023-04-03T09:50:08;37.57;;;23.13;;
5690;SDS011;2870;42.680;23.364;2023-04-03T09:52:45;31.47;;;18.90;;
5690;SDS011;2870;42.680;23.364;2023-04-03T09:55:14;35.53;;;16.47;;
5690;SDS011;2870;42.680;23.364;2023-04-03T09:57:44;20.93;;;14.90;;
5690;SDS011;2870;42.680;23.364;2023-04-03T10:00:19;27.50;;;14.33;;
5690;SDS011;2870;42.680;23.364;2023-04-03T10:02:49;28.07;;;14.17;;
5690;SDS011;2870;42.680;23.364;2023-04-03T10:05:25;20.40;;;13.83;;
5690;SDS011;2870;42.680;23.364;2023-04-03T10:08:07;28.43;;;13.57;;
5690;SDS011;2870;42.680;23.364;2023-04-03T10:10:46;23.37;;;12.60;;
5690;SDS011;2870;42.680;23.364;2023-04-03T10:13:15;32.37;;;14.90;;
5690;SDS011;2870;42.680;23.364;2023-04-03T10:15:46;26.40;;;13.80;;
5690;SDS011;2870;42.680;23.364;2023-04-03T10:18:22;31.20;;;14.70;;
5690;SDS011;2870;42.680;23.364;2023-04-03T10:20:56;27.27;;;13.80;;
5690;SDS011;2870;42.680;23.364;2023-04-03T10:23:29;19.53;;;14.27;;
5690;SDS011;2870;42.680;23.364;2023-04-03T10:26:07;26.80;;;14.37;;
5690;SDS011;2870;42.680;23.364;2023-04-03T10:28:45;19.40;;;12.20;;
5690;SDS011;2870;42.680;23.364;2023-04-03T10:31:21;25.03;;;13.80;;
5690;SDS011;2870;42.680;23.364;2023-04-03T10:33:56;26.77;;;11.50;;
5690;SDS011;2870;42.680;23.364;2023-04-03T10:36:34;34.23;;;16.23;;
5690;SDS011;2870;42.680;23.364;2023-04-03T10:39:17;18.77;;;11.70;;
5690;SDS011;2870;42.680;23.364;2023-04-03T10:41:54;20.70;;;11.33;;
5690;SDS011;2870;42.680;23.364;2023-04-03T10:44:31;21.00;;;12.43;;
5690;SDS011;2870;42.680;23.364;2023-04-03T10:47:08;18.23;;;10.87;;
5690;SDS011;2870;42.680;23.364;2023-04-03T10:49:42;37.43;;;12.63;;
5690;SDS011;2870;42.680;23.364;2023-04-03T10:52:20;24.10;;;11.50;;
5690;SDS011;2870;42.680;23.364;2023-04-03T10:54:54;18.37;;;10.00;;
5690;SDS011;2870;42.680;23.364;2023-04-03T10:57:29;13.53;;;9.17;;
5690;SDS011;2870;42.680;23.364;2023-04-03T10:59:59;14.83;;;9.10;;
5690;SDS011;2870;42.680;23.364;2023-04-03T11:02:35;23.00;;;8.30;;
5690;SDS011;2870;42.680;23.364;2023-04-03T11:05:17;14.53;;;8.30;;
5690;SDS011;2870;42.680;23.364;2023-04-03T11:07:52;11.00;;;6.77;;
5690;SDS011;2870;42.680;23.364;2023-04-03T11:10:23;8.70;;;6.10;;
5690;SDS011;2870;42.680;23.364;2023-04-03T11:12:56;13.93;;;6.67;;
5690;SDS011;2870;42.680;23.364;2023-04-03T11:15:30;12.70;;;6.57;;
5690;SDS011;2870;42.680;23.364;2023-04-03T11:18:00;7.60;;;5.80;;
5690;SDS011;2870;42.680;23.364;2023-04-03T11:20:31;8.67;;;6.00;;
5690;SDS011;2870;42.680;23.364;2023-04-03T11:23:00;8.23;;;5.93;;
5690;SDS011;2870;42.680;23.364;2023-04-03T11:25:30;10.37;;;6.37;;
5690;SDS011;2870;42.680;23.364;2023-04-03T11:28:00;9.73;;;6.67;;
5690;SDS011;2870;42.680;23.364;2023-04-03T11:30:31;11.07;;;6.10;;
5690;SDS011;2870;42.680;23.364;2023-04-03T11:35:59;9.43;;;6.30;;
5690;SDS011;2870;42.680;23.364;2023-04-03T11:38:32;9.50;;;5.93;;
5690;SDS011;2870;42.680;23.364;2023-04-03T11:41:04;10.03;;;6.70;;
5690;SDS011;2870;42.680;23.364;2023-04-03T11:43:36;7.50;;;5.80;;
5690;SDS011;2870;42.680;23.364;2023-04-03T11:46:08;11.17;;;6.30;;
5690;SDS011;2870;42.680;23.364;2023-04-03T11:48:43;9.20;;;6.23;;
5690;SDS011;2870;42.680;23.364;2023-04-03T12:12:42;11.20;;;7.13;;
5690;SDS011;2870;42.680;23.364;2023-04-03T12:21:24;10.60;;;6.03;;
5690;SDS011;2870;42.680;23.364;2023-04-03T12:24:27;6.60;;;5.03;;
5690;SDS011;2870;42.680;23.364;2023-04-03T12:27:08;8.07;;;5.90;;
5690;SDS011;2870;42.680;23.364;2023-04-03T12:29:43;8.60;;;6.30;;
5690;SDS011;2870;42.680;23.364;2023-04-03T12:32:21;8.33;;;5.97;;
5690;SDS011;2870;42.680;23.364;2023-04-03T12:35:04;12.53;;;6.40;;
5690;SDS011;2870;42.680;23.364;2023-04-03T12:37:48;8.17;;;6.20;;
5690;SDS011;2870;42.680;23.364;2023-04-03T12:40:45;7.80;;;6.13;;
5690;SDS011;2870;42.680;23.364;2023-04-03T12:46:11;8.80;;;6.43;;
5690;SDS011;2870;42.680;23.364;2023-04-03T12:48:47;9.67;;;7.10;;
5690;SDS011;2870;42.680;23.364;2023-04-03T12:51:17;9.67;;;7.10;;
5690;SDS011;2870;42.680;23.364;2023-04-03T12:53:45;15.43;;;7.00;;
5690;SDS011;2870;42.680;23.364;2023-04-03T12:56:22;10.77;;;7.87;;
5690;SDS011;2870;42.680;23.364;2023-04-03T12:58:51;9.13;;;7.20;;
5690;SDS011;2870;42.680;23.364;2023-04-03T13:01:20;12.63;;;8.47;;
5690;SDS011;2870;42.680;23.364;2023-04-03T13:03:49;12.27;;;8.63;;
5690;SDS011;2870;42.680;23.364;2023-04-03T13:06:21;11.93;;;8.70;;
5690;SDS011;2870;42.680;23.364;2023-04-03T13:08:50;13.70;;;8.90;;
5690;SDS011;2870;42.680;23.364;2023-04-03T13:11:19;22.13;;;9.17;;
5690;SDS011;2870;42.680;23.364;2023-04-03T13:13:56;13.27;;;9.03;;
5690;SDS011;2870;42.680;23.364;2023-04-03T13:16:25;19.40;;;11.97;;
5690;SDS011;2870;42.680;23.364;2023-04-03T13:18:53;11.90;;;9.07;;
5690;SDS011;2870;42.680;23.364;2023-04-03T13:21:22;19.83;;;11.10;;
5690;SDS011;2870;42.680;23.364;2023-04-03T13:23:52;13.53;;;9.40;;
5690;SDS011;2870;42.680;23.364;2023-04-03T13:26:25;15.90;;;10.77;;
5690;SDS011;2870;42.680;23.364;2023-04-03T13:28:54;16.20;;;10.57;;
5690;SDS011;2870;42.680;23.364;2023-04-03T13:31:26;14.87;;;10.70;;
5690;SDS011;2870;42.680;23.364;2023-04-03T13:33:57;12.73;;;9.50;;
5690;SDS011;2870;42.680;23.364;2023-04-03T13:36:29;17.90;;;10.83;;
5690;SDS011;2870;42.680;23.364;2023-04-03T13:38:59;16.17;;;9.63;;
5690;SDS011;2870;42.680;23.364;2023-04-03T13:41:31;15.30;;;10.37;;
5690;SDS011;2870;42.680;23.364;2023-04-03T13:44:14;11.80;;;8.97;;
5690;SDS011;2870;42.680;23.364;2023-04-03T13:46:42;13.90;;;9.40;;
5690;SDS011;2870;42.680;23.364;2023-04-03T13:49:19;12.27;;;9.70;;
5690;SDS011;2870;42.680;23.364;2023-04-03T13:51:47;14.40;;;8.67;;
5690;SDS011;2870;42.680;23.364;2023-04-03T13:54:19;13.30;;;9.87;;
5690;SDS011;2870;42.680;23.364;2023-04-03T13:56:52;19.30;;;10.60;;
5690;SDS011;2870;42.680;23.364;2023-04-03T13:59:23;12.13;;;9.60;;
5690;SDS011;2870;42.680;23.364;2023-04-03T14:01:51;16.37;;;11.10;;
5690;SDS011;2870;42.680;23.364;2023-04-03T14:04:21;19.57;;;11.03;;
5690;SDS011;2870;42.680;23.364;2023-04-03T14:06:51;19.93;;;12.27;;
5690;SDS011;2870;42.680;23.364;2023-04-03T14:09:18;15.40;;;12.17;;
5690;SDS011;2870;42.680;23.364;2023-04-03T14:11:46;18.87;;;12.17;;
5690;SDS011;2870;42.680;23.364;2023-04-03T14:14:16;15.60;;;12.40;;
5690;SDS011;2870;42.680;23.364;2023-04-03T14:16:47;25.50;;;13.60;;
5690;SDS011;2870;42.680;23.364;2023-04-03T14:19:19;15.93;;;12.43;;
5690;SDS011;2870;42.680;23.364;2023-04-03T14:21:48;20.07;;;15.47;;
5690;SDS011;2870;42.680;23.364;2023-04-03T14:24:16;18.47;;;12.90;;
5690;SDS011;2870;42.680;23.364;2023-04-03T14:26:44;15.87;;;11.33;;
5690;SDS011;2870;42.680;23.364;2023-04-03T14:29:12;13.20;;;10.23;;
5690;SDS011;2870;42.680;23.364;2023-04-03T14:31:42;12.90;;;10.20;;
5690;SDS011;2870;42.680;23.364;2023-04-03T14:34:11;13.37;;;11.10;;
5690;SDS011;2870;42.680;23.364;2023-04-03T14:36:39;13.70;;;10.60;;
5690;SDS011;2870;42.680;23.364;2023-04-03T14:39:08;13.50;;;9.60;;
5690;SDS011;2870;42.680;23.364;2023-04-03T14:41:42;13.77;;;8.60;;
5690;SDS011;2870;42.680;23.364;2023-04-03T14:44:09;20.60;;;8.83;;
5690;SDS011;2870;42.680;23.364;2023-04-03T14:46:37;11.37;;;9.20;;
5690;SDS011;2870;42.680;23.364;2023-04-03T14:49:08;9.40;;;8.40;;
5690;SDS011;2870;42.680;23.364;2023-04-03T14:51:40;11.30;;;8.73;;
5690;SDS011;2870;42.680;23.364;2023-04-03T14:54:10;9.20;;;7.90;;
5690;SDS011;2870;42.680;23.364;2023-04-03T14:56:39;9.00;;;7.60;;
5690;SDS011;2870;42.680;23.364;2023-04-03T14:59:08;11.00;;;7.97;;
5690;SDS011;2870;42.680;23.364;2023-04-03T15:01:38;9.90;;;6.50;;
5690;SDS011;2870;42.680;23.364;2023-04-03T15:04:08;10.80;;;7.80;;
5690;SDS011;2870;42.680;23.364;2023-04-03T15:06:38;11.73;;;7.17;;
5690;SDS011;2870;42.680;23.364;2023-04-03T15:09:05;8.23;;;7.23;;
5690;SDS011;2870;42.680;23.364;2023-04-03T15:11:41;9.33;;;7.50;;
5690;SDS011;2870;42.680;23.364;2023-04-03T15:14:08;10.17;;;7.17;;
5690;SDS011;2870;42.680;23.364;2023-04-03T15:16:35;7.57;;;6.77;;
5690;SDS011;2870;42.680;23.364;2023-04-03T15:19:02;7.60;;;6.17;;
5690;SDS011;2870;42.680;23.364;2023-04-03T15:21:31;7.20;;;6.13;;
5690;SDS011;2870;42.680;23.364;2023-04-03T15:23:57;7.90;;;6.77;;
5690;SDS011;2870;42.680;23.364;2023-04-03T15:26:24;7.23;;;6.50;;
5690;SDS011;2870;42.680;23.364;2023-04-03T15:28:51;8.13;;;6.67;;
5690;SDS011;2870;42.680;23.364;2023-04-03T15:31:18;7.87;;;6.80;;